createdAt,value
2022-11-25T00:01:18.748Z,7.00
2022-11-25T00:03:45.554Z,7.00
2022-11-25T00:06:20.556Z,7.00
2022-11-25T00:08:49.419Z,7.00
2022-11-25T00:11:16.250Z,7.00
2022-11-25T00:13:42.988Z,7.00
2022-11-25T00:16:11.338Z,7.00
2022-11-25T00:18:38.047Z,7.00
2022-11-25T00:21:08.765Z,7.00
2022-11-25T00:23:35.728Z,7.10
2022-11-25T00:26:09.724Z,7.10
2022-11-25T00:28:36.443Z,7.20
2022-11-25T00:31:13.581Z,7.10
2022-11-25T00:33:40.318Z,7.10
2022-11-25T00:36:10.591Z,7.10
2022-11-25T00:38:37.238Z,7.10
2022-11-25T00:41:22.283Z,7.00
2022-11-25T00:44:07.378Z,7.00
2022-11-25T00:46:33.969Z,7.00
2022-11-25T00:49:00.575Z,7.10
2022-11-25T00:51:27.163Z,7.00
2022-11-25T00:53:58.750Z,7.00
2022-11-25T00:56:25.930Z,7.00
2022-11-25T00:58:52.870Z,7.00
2022-11-25T01:01:19.500Z,6.90
2022-11-25T01:03:49.180Z,6.90
2022-11-25T01:06:15.788Z,7.00
2022-11-25T01:08:42.380Z,7.00
2022-11-25T01:11:11.870Z,6.90
2022-11-25T01:13:38.451Z,6.90
2022-11-25T01:16:05.912Z,6.80
2022-11-25T01:18:32.699Z,6.80
2022-11-25T01:21:37.912Z,6.80
2022-11-25T01:24:05.115Z,6.60
2022-11-25T01:26:31.932Z,6.60
2022-11-25T01:29:04.090Z,6.70
2022-11-25T01:31:32.405Z,6.60
2022-11-25T01:34:03.781Z,6.50
2022-11-25T01:36:31.429Z,6.60
2022-11-25T01:38:59.184Z,6.70
2022-11-25T01:41:27.529Z,6.70
2022-11-25T01:44:05.639Z,6.70
2022-11-25T01:46:55.323Z,6.60
2022-11-25T01:49:31.015Z,6.60
2022-11-25T01:52:04.916Z,6.60
2022-11-25T01:54:33.866Z,6.70
2022-11-25T01:57:06.688Z,6.70
2022-11-25T01:59:34.171Z,6.70
2022-11-25T02:02:00.918Z,6.70
2022-11-25T02:04:30.042Z,6.80
2022-11-25T02:06:59.217Z,6.80
2022-11-25T02:09:25.793Z,6.70
2022-11-25T02:11:52.508Z,6.70
2022-11-25T02:14:19.156Z,6.70
2022-11-25T02:16:45.926Z,6.70
2022-11-25T02:19:28.209Z,6.90
2022-11-25T02:21:56.722Z,6.90
2022-11-25T02:24:40.383Z,6.80
2022-11-25T02:27:06.972Z,6.80
2022-11-25T02:29:33.547Z,6.70
2022-11-25T02:32:00.229Z,6.70
2022-11-25T02:34:26.893Z,6.70
2022-11-25T02:36:53.499Z,6.80
2022-11-25T02:39:20.156Z,6.90
2022-11-25T02:41:54.370Z,6.90
2022-11-25T02:44:20.964Z,6.80
2022-11-25T02:46:47.655Z,6.90
2022-11-25T02:49:14.249Z,6.70
2022-11-25T02:51:43.836Z,7.00
2022-11-25T02:54:11.691Z,6.90
2022-11-25T02:56:38.355Z,6.80
2022-11-25T02:59:04.983Z,6.70
2022-11-25T03:01:31.911Z,6.80
2022-11-25T03:03:58.906Z,6.80
2022-11-25T03:06:25.615Z,6.80
2022-11-25T03:08:52.225Z,6.80
2022-11-25T03:11:18.835Z,6.70
2022-11-25T03:13:45.484Z,6.70
2022-11-25T03:16:12.140Z,6.70
2022-11-25T03:18:38.807Z,6.90
2022-11-25T03:21:05.701Z,6.90
2022-11-25T03:23:32.289Z,6.90
2022-11-25T03:25:58.920Z,7.00
2022-11-25T03:28:25.509Z,7.00
2022-11-25T03:30:52.172Z,6.90
2022-11-25T03:33:18.822Z,6.90
2022-11-25T03:35:45.427Z,6.90
2022-11-25T03:38:12.010Z,7.00
2022-11-25T03:40:38.641Z,6.90
2022-11-25T03:43:05.288Z,6.80
2022-11-25T03:45:31.963Z,6.90
2022-11-25T03:47:58.679Z,6.80
2022-11-25T03:50:25.348Z,6.70
2022-11-25T03:52:51.952Z,6.70
2022-11-25T03:55:18.611Z,6.80
2022-11-25T03:57:45.222Z,6.70
2022-11-25T04:00:12.262Z,6.80
2022-11-25T04:02:38.929Z,6.80
2022-11-25T04:05:05.919Z,6.80
2022-11-25T04:07:32.610Z,6.80
2022-11-25T04:09:59.253Z,6.80
2022-11-25T04:12:44.320Z,6.80
2022-11-25T04:15:11.035Z,6.80
2022-11-25T04:17:37.811Z,6.70
2022-11-25T04:20:04.993Z,6.70
2022-11-25T04:22:31.608Z,6.70
2022-11-25T04:24:58.210Z,6.80
2022-11-25T04:27:24.874Z,6.70
2022-11-25T04:29:51.459Z,6.70
2022-11-25T04:32:18.196Z,6.40
2022-11-25T04:34:44.788Z,6.40
2022-11-25T04:37:11.405Z,6.40
2022-11-25T04:39:38.010Z,6.60
2022-11-25T04:42:23.098Z,6.60
2022-11-25T04:45:07.610Z,6.60
2022-11-25T04:47:36.377Z,6.60
2022-11-25T04:50:04.294Z,6.60
2022-11-25T04:52:31.041Z,6.60
2022-11-25T04:54:57.644Z,6.60
2022-11-25T04:57:24.284Z,6.30
2022-11-25T04:59:51.043Z,6.60
2022-11-25T05:02:20.072Z,6.70
2022-11-25T05:04:47.693Z,6.60
2022-11-25T05:07:14.556Z,6.50
2022-11-25T05:09:41.252Z,6.40
2022-11-25T05:12:08.301Z,6.50
2022-11-25T05:14:35.663Z,6.50
2022-11-25T05:17:03.768Z,6.50
2022-11-25T05:19:30.431Z,6.30
2022-11-25T05:21:57.159Z,6.20
2022-11-25T05:24:24.813Z,6.20
2022-11-25T05:26:51.585Z,6.20
2022-11-25T05:29:18.197Z,6.20
2022-11-25T05:31:44.839Z,6.30
2022-11-25T05:34:11.432Z,6.40
2022-11-25T05:36:38.070Z,6.30
2022-11-25T05:39:04.773Z,6.60
2022-11-25T05:41:31.389Z,6.50
2022-11-25T05:43:58.033Z,6.50
2022-11-25T05:46:24.695Z,6.50
2022-11-25T05:48:55.145Z,6.40
2022-11-25T05:51:22.091Z,6.30
2022-11-25T05:53:48.690Z,6.20
2022-11-25T05:56:15.285Z,6.20
2022-11-25T05:58:41.869Z,6.30
2022-11-25T06:01:09.330Z,6.40
2022-11-25T06:03:36.341Z,6.40
2022-11-25T06:06:03.062Z,6.20
2022-11-25T06:08:29.689Z,6.20
2022-11-25T06:10:56.277Z,6.20
2022-11-25T06:13:22.984Z,6.40
2022-11-25T06:15:49.656Z,6.40
2022-11-25T06:18:17.227Z,6.40
2022-11-25T06:20:44.811Z,6.50
2022-11-25T06:23:11.436Z,6.70
2022-11-25T06:25:38.036Z,6.70
2022-11-25T06:28:12.765Z,6.60
2022-11-25T06:30:39.841Z,6.50
2022-11-25T06:33:06.437Z,6.50
2022-11-25T06:35:33.051Z,6.60
2022-11-25T06:37:59.708Z,6.70
2022-11-25T06:40:26.301Z,6.50
2022-11-25T06:42:52.941Z,6.30
2022-11-25T06:45:19.548Z,6.20
2022-11-25T06:47:46.148Z,6.50
2022-11-25T06:50:12.777Z,6.70
2022-11-25T06:52:39.390Z,6.80
2022-11-25T06:55:06.341Z,6.60
2022-11-25T06:57:32.952Z,6.40
2022-11-25T06:59:59.551Z,6.40
2022-11-25T07:02:26.249Z,6.40
2022-11-25T07:04:53.741Z,6.40
2022-11-25T07:07:20.463Z,6.60
2022-11-25T07:09:47.614Z,6.80
2022-11-25T07:12:14.309Z,6.80
2022-11-25T07:14:40.923Z,7.40
2022-11-25T07:17:11.934Z,8.00
2022-11-25T07:19:38.920Z,7.70
2022-11-25T07:22:05.559Z,7.40
2022-11-25T07:24:33.796Z,7.40
2022-11-25T07:27:00.703Z,7.90
2022-11-25T07:29:54.248Z,7.80
2022-11-25T07:32:14.467Z,7.60
2022-11-25T07:34:41.133Z,7.60
2022-11-25T07:37:08.137Z,8.00
2022-11-25T07:39:35.242Z,7.80
2022-11-25T07:42:02.077Z,7.60
2022-11-25T07:44:28.661Z,7.70
2022-11-25T07:46:55.428Z,7.60
2022-11-25T07:49:22.769Z,7.60
2022-11-25T07:51:57.538Z,7.90
2022-11-25T07:54:24.341Z,8.00
2022-11-25T07:56:51.177Z,9.00
2022-11-25T07:59:20.001Z,8.60
2022-11-25T08:01:46.772Z,8.40
2022-11-25T08:04:19.853Z,7.90
2022-11-25T08:06:48.489Z,8.30
2022-11-25T08:09:19.105Z,8.70
2022-11-25T08:11:45.837Z,8.40
2022-11-25T08:14:12.466Z,9.10
2022-11-25T08:16:39.240Z,8.70
2022-11-25T08:19:07.384Z,8.90
2022-11-25T08:21:34.242Z,9.10
2022-11-25T08:24:02.936Z,9.10
2022-11-25T08:26:31.276Z,9.00
2022-11-25T08:28:58.321Z,8.80
2022-11-25T08:31:36.564Z,9.30
2022-11-25T08:34:03.754Z,9.10
2022-11-25T08:36:31.651Z,8.90
2022-11-25T08:38:59.681Z,8.40
2022-11-25T08:41:31.540Z,8.50
2022-11-25T08:43:59.162Z,8.20
2022-11-25T08:46:27.688Z,9.30
2022-11-25T08:48:54.493Z,9.30
2022-11-25T08:51:24.345Z,9.20
2022-11-25T08:53:53.757Z,8.70
2022-11-25T08:56:25.699Z,8.70
2022-11-25T08:58:53.559Z,9.30
2022-11-25T09:01:20.692Z,9.20
2022-11-25T09:03:49.050Z,9.30
2022-11-25T09:06:15.649Z,8.40
2022-11-25T09:08:42.851Z,8.90
2022-11-25T09:11:09.608Z,8.50
2022-11-25T09:13:36.368Z,8.90
2022-11-25T09:16:03.475Z,8.00
2022-11-25T09:18:31.340Z,7.70
2022-11-25T09:20:58.075Z,7.60
2022-11-25T09:23:25.128Z,7.70
2022-11-25T09:25:58.640Z,7.50
2022-11-25T09:28:25.617Z,7.60
2022-11-25T09:30:52.548Z,7.30
2022-11-25T09:33:19.624Z,7.50
2022-11-25T09:35:47.077Z,7.70
2022-11-25T09:38:13.676Z,7.70
2022-11-25T09:41:02.942Z,7.50
2022-11-25T09:44:06.935Z,7.50
2022-11-25T09:47:00.549Z,7.50
2022-11-25T09:49:30.888Z,7.70
2022-11-25T09:52:10.373Z,7.60
2022-11-25T09:54:42.511Z,7.50
2022-11-25T09:57:22.941Z,7.60
2022-11-25T10:00:11.126Z,7.70
2022-11-25T10:02:41.024Z,7.70
2022-11-25T10:05:09.736Z,7.60
2022-11-25T10:08:03.615Z,7.60
2022-11-25T10:10:31.515Z,7.50
2022-11-25T10:12:58.596Z,7.70
2022-11-25T10:15:31.699Z,7.80
2022-11-25T10:18:03.539Z,7.80
2022-11-25T10:20:37.844Z,7.70
2022-11-25T10:23:31.441Z,7.80
2022-11-25T10:26:01.371Z,7.70
2022-11-25T10:28:32.344Z,7.80
2022-11-25T10:31:25.224Z,7.90
2022-11-25T10:33:56.919Z,7.80
2022-11-25T10:36:26.539Z,7.90
2022-11-25T10:39:27.060Z,7.70
2022-11-25T10:42:23.305Z,7.80
2022-11-25T10:44:50.045Z,7.90
2022-11-25T10:47:34.964Z,8.00
2022-11-25T10:50:07.449Z,7.80
2022-11-25T10:52:41.041Z,7.80
2022-11-25T10:55:12.301Z,7.90
2022-11-25T10:57:38.960Z,7.90
2022-11-25T11:00:10.549Z,7.70
2022-11-25T11:02:40.973Z,7.80
2022-11-25T11:05:11.131Z,7.80
2022-11-25T11:07:43.007Z,7.80
2022-11-25T11:10:22.419Z,7.80
2022-11-25T11:12:59.257Z,7.90
2022-11-25T11:15:29.811Z,7.90
2022-11-25T11:17:57.308Z,7.90
2022-11-25T11:20:28.188Z,7.80
2022-11-25T11:23:15.136Z,7.70
2022-11-25T11:25:43.046Z,7.90
2022-11-25T11:28:34.956Z,7.80
2022-11-25T11:31:19.258Z,7.90
2022-11-25T11:34:04.299Z,7.70
2022-11-25T11:36:55.884Z,7.50
2022-11-25T11:39:43.740Z,7.50
2022-11-25T11:42:23.699Z,7.80
2022-11-25T11:45:14.823Z,7.80
2022-11-25T11:48:20.244Z,7.60
2022-11-25T11:50:51.069Z,7.80
2022-11-25T11:53:23.456Z,8.00
2022-11-25T11:56:34.763Z,8.00
2022-11-25T11:59:17.767Z,8.00
2022-11-25T12:02:09.291Z,8.10
2022-11-25T12:04:45.715Z,8.10
2022-11-25T12:07:21.204Z,8.10
2022-11-25T12:10:17.172Z,8.10
2022-11-25T12:13:08.497Z,7.90
2022-11-25T12:15:45.616Z,7.90
2022-11-25T12:18:20.776Z,8.00
2022-11-25T12:20:57.944Z,8.00
2022-11-25T12:23:46.213Z,7.90
2022-11-25T12:26:21.121Z,8.10
2022-11-25T12:28:59.731Z,8.10
2022-11-25T12:31:31.522Z,8.10
2022-11-25T12:34:21.692Z,7.90
2022-11-25T12:36:48.388Z,8.10
2022-11-25T12:39:23.422Z,8.10
2022-11-25T12:41:58.024Z,8.00
2022-11-25T12:44:38.259Z,8.00
2022-11-25T12:47:05.037Z,8.00
2022-11-25T12:49:32.794Z,8.10
2022-11-25T12:52:18.456Z,8.10
2022-11-25T12:55:08.695Z,8.20
2022-11-25T12:57:45.941Z,8.30
2022-11-25T13:03:25.641Z,8.10
2022-11-25T13:06:02.475Z,8.40
2022-11-25T13:08:50.183Z,8.50
2022-11-25T13:11:23.076Z,8.30
2022-11-25T13:13:54.890Z,8.30
2022-11-25T13:16:22.389Z,8.40
2022-11-25T13:18:49.312Z,8.50
2022-11-25T13:21:16.573Z,8.50
2022-11-25T13:23:52.110Z,8.60
2022-11-25T13:26:36.117Z,8.50
2022-11-25T13:29:25.823Z,8.30
2022-11-25T13:31:59.974Z,8.40
2022-11-25T13:34:36.569Z,8.50
2022-11-25T13:37:49.441Z,8.40
2022-11-25T13:40:31.099Z,8.20
2022-11-25T13:43:00.251Z,8.10
2022-11-25T13:45:29.681Z,8.00
2022-11-25T13:47:56.400Z,7.80
2022-11-25T13:50:28.984Z,8.20
2022-11-25T13:53:18.683Z,7.80
2022-11-25T13:55:45.295Z,8.10
2022-11-25T13:58:35.808Z,8.20
2022-11-25T14:01:31.798Z,8.10
2022-11-25T14:04:00.228Z,7.90
2022-11-25T14:06:51.013Z,7.90
2022-11-25T14:09:51.406Z,7.70
2022-11-25T14:12:35.853Z,7.80
2022-11-25T14:15:32.744Z,7.90
2022-11-25T14:19:21.828Z,8.00
2022-11-25T14:21:46.878Z,7.90
2022-11-25T14:24:16.605Z,7.80
2022-11-25T14:26:50.254Z,7.70
2022-11-25T14:29:32.303Z,7.90
2022-11-25T14:32:05.504Z,8.00
2022-11-25T14:34:33.601Z,7.70
2022-11-25T14:37:26.131Z,8.10
2022-11-25T14:40:01.634Z,7.80
2022-11-25T14:42:32.116Z,7.80
2022-11-25T14:44:59.252Z,7.60
2022-11-25T14:47:34.590Z,7.90
2022-11-25T14:50:33.252Z,7.90
2022-11-25T14:52:52.961Z,7.70
2022-11-25T14:55:30.507Z,7.50
2022-11-25T14:57:57.222Z,7.40
2022-11-25T15:00:24.055Z,7.60
2022-11-25T15:02:57.524Z,7.60
2022-11-25T15:05:26.932Z,7.30
2022-11-25T15:07:57.294Z,7.30
2022-11-25T15:10:35.475Z,6.80
2022-11-25T15:13:06.317Z,7.00
2022-11-25T15:15:32.929Z,7.10
2022-11-25T15:17:59.505Z,7.00
2022-11-25T15:20:26.135Z,7.20
2022-11-25T15:22:53.665Z,7.00
2022-11-25T15:25:20.483Z,7.20
2022-11-25T15:27:50.705Z,7.40
2022-11-25T15:30:18.855Z,7.30
2022-11-25T15:32:45.443Z,7.30
2022-11-25T15:35:21.256Z,7.30
2022-11-25T15:37:48.469Z,7.20
2022-11-25T15:40:43.144Z,7.10
2022-11-25T15:43:24.812Z,7.30
2022-11-25T15:45:52.575Z,7.40
2022-11-25T15:48:38.516Z,7.30
2022-11-25T15:51:07.074Z,7.20
2022-11-25T15:53:36.950Z,7.40
2022-11-25T15:56:04.396Z,7.40
2022-11-25T15:58:31.079Z,7.30
2022-11-25T16:01:16.034Z,7.30
2022-11-25T16:03:43.437Z,7.50
2022-11-25T16:06:26.733Z,7.20
2022-11-25T16:08:54.777Z,7.50
2022-11-25T16:11:21.576Z,7.60
2022-11-25T16:13:49.148Z,7.50
2022-11-25T16:16:24.056Z,7.40
2022-11-25T16:18:53.605Z,7.20
2022-11-25T16:21:24.939Z,7.40
2022-11-25T16:24:06.891Z,7.40
2022-11-25T16:26:53.351Z,7.30
2022-11-25T16:29:47.453Z,7.20
2022-11-25T16:32:15.918Z,7.00
2022-11-25T16:34:42.958Z,7.00
2022-11-25T16:37:09.650Z,7.20
2022-11-25T16:39:36.898Z,7.10
2022-11-25T16:42:04.530Z,7.10
2022-11-25T16:44:32.700Z,7.00
2022-11-25T16:46:59.361Z,7.30
2022-11-25T16:49:26.425Z,7.20
2022-11-25T16:51:53.182Z,7.20
2022-11-25T16:54:20.201Z,6.90
2022-11-25T16:56:49.644Z,7.00
2022-11-25T16:59:28.813Z,6.70
2022-11-25T17:01:55.584Z,6.50
2022-11-25T17:04:22.262Z,6.50
2022-11-25T17:07:16.629Z,6.60
2022-11-25T17:09:35.748Z,6.20
2022-11-25T17:12:02.492Z,6.20
2022-11-25T17:14:32.911Z,6.10
2022-11-25T17:16:59.953Z,6.30
2022-11-25T17:19:26.743Z,6.20
2022-11-25T17:21:53.371Z,6.30
2022-11-25T17:24:24.212Z,6.20
2022-11-25T17:27:10.280Z,6.10
2022-11-25T17:29:39.001Z,6.10
2022-11-25T17:32:05.692Z,6.10
2022-11-25T17:34:37.831Z,6.30
2022-11-25T17:37:23.997Z,7.10
2022-11-25T17:39:52.639Z,6.60
2022-11-25T17:42:21.732Z,6.50
2022-11-25T17:44:52.886Z,6.40
2022-11-25T17:47:20.848Z,6.70
2022-11-25T17:49:48.211Z,6.90
2022-11-25T17:52:14.892Z,7.00
2022-11-25T17:54:41.640Z,6.90
2022-11-25T17:57:11.031Z,7.20
2022-11-25T17:59:37.691Z,7.20
2022-11-25T18:02:18.150Z,7.30
2022-11-25T18:04:44.799Z,7.10
2022-11-25T18:07:11.467Z,7.10
2022-11-25T18:09:38.076Z,7.00
2022-11-25T18:12:15.364Z,7.00
2022-11-25T18:14:42.886Z,7.00
2022-11-25T18:17:12.620Z,7.00
2022-11-25T18:19:39.217Z,6.90
2022-11-25T18:22:12.884Z,7.00
2022-11-25T18:24:39.709Z,7.40
2022-11-25T18:27:06.875Z,7.00
2022-11-25T18:29:33.503Z,6.90
2022-11-25T18:32:00.133Z,7.00
2022-11-25T18:34:27.048Z,6.90
2022-11-25T18:36:53.843Z,7.00
2022-11-25T18:39:20.593Z,6.80
2022-11-25T18:41:47.391Z,6.70
2022-11-25T18:44:29.030Z,7.20
2022-11-25T18:46:55.650Z,6.80
2022-11-25T18:49:23.658Z,6.60
2022-11-25T18:51:50.338Z,6.70
2022-11-25T18:54:16.945Z,6.60
2022-11-25T18:56:43.559Z,6.60
2022-11-25T18:59:14.390Z,6.80
2022-11-25T19:01:44.231Z,6.80
2022-11-25T19:04:16.550Z,7.10
2022-11-25T19:06:43.697Z,7.00
2022-11-25T19:09:10.317Z,6.80
2022-11-25T19:11:39.241Z,6.70
2022-11-25T19:14:13.119Z,6.70
2022-11-25T19:16:39.847Z,6.60
2022-11-25T19:19:06.482Z,6.30
2022-11-25T19:21:33.489Z,6.40
2022-11-25T19:24:00.205Z,6.40
2022-11-25T19:26:28.814Z,6.40
2022-11-25T19:28:59.593Z,6.50
2022-11-25T19:31:26.239Z,6.70
2022-11-25T19:33:53.102Z,6.60
2022-11-25T19:36:24.272Z,7.00
2022-11-25T19:38:51.165Z,6.60
2022-11-25T19:41:17.810Z,6.60
2022-11-25T19:43:44.421Z,6.70
2022-11-25T19:46:41.189Z,6.70
2022-11-25T19:49:19.872Z,6.60
2022-11-25T19:51:46.480Z,6.50
2022-11-25T19:54:14.195Z,6.90
2022-11-25T19:56:41.256Z,6.60
2022-11-25T19:59:08.300Z,6.70
2022-11-25T20:01:36.386Z,6.70
2022-11-25T20:04:03.335Z,6.70
2022-11-25T20:06:30.545Z,6.70
2022-11-25T20:09:04.270Z,6.70
2022-11-25T20:11:34.868Z,6.60
2022-11-25T20:14:01.478Z,6.70
2022-11-25T20:16:31.036Z,6.70
2022-11-25T20:18:57.671Z,6.70
2022-11-25T20:21:27.012Z,6.50
2022-11-25T20:23:53.691Z,6.30
2022-11-25T20:26:28.165Z,6.50
2022-11-25T20:28:54.778Z,6.60
2022-11-25T20:31:22.107Z,6.80
2022-11-25T20:33:49.039Z,6.50
2022-11-25T20:36:17.089Z,6.50
2022-11-25T20:38:46.954Z,6.70
2022-11-25T20:41:13.869Z,6.60
2022-11-25T20:43:41.438Z,6.70
2022-11-25T20:46:26.133Z,6.50
2022-11-25T20:48:54.109Z,6.50
2022-11-25T20:51:21.365Z,6.70
2022-11-25T20:53:58.428Z,6.50
2022-11-25T20:56:25.738Z,6.40
2022-11-25T20:58:52.367Z,6.60
2022-11-25T21:01:19.076Z,6.70
2022-11-25T21:03:46.040Z,6.70
2022-11-25T21:06:29.129Z,6.50
2022-11-25T21:08:58.146Z,6.40
2022-11-25T21:11:27.601Z,6.60
2022-11-25T21:13:54.274Z,6.90
2022-11-25T21:16:21.048Z,6.60
2022-11-25T21:18:47.725Z,6.70
2022-11-25T21:21:25.981Z,6.50
2022-11-25T21:23:52.626Z,6.80
2022-11-25T21:26:20.852Z,6.50
2022-11-25T21:28:48.236Z,6.60
2022-11-25T21:31:22.810Z,6.70
2022-11-25T21:33:49.937Z,6.50
2022-11-25T21:36:23.692Z,6.70
2022-11-25T21:38:51.432Z,6.60
2022-11-25T21:41:18.257Z,6.70
2022-11-25T21:43:46.310Z,6.50
2022-11-25T21:46:16.872Z,6.50
2022-11-25T21:48:43.577Z,6.60
2022-11-25T21:51:11.753Z,6.50
2022-11-25T21:53:38.349Z,6.50
2022-11-25T21:56:15.315Z,6.90
2022-11-25T21:58:41.952Z,6.50
2022-11-25T22:01:09.409Z,6.60
2022-11-25T22:03:36.073Z,6.50
2022-11-25T22:06:02.682Z,6.50
2022-11-25T22:08:29.275Z,6.30
2022-11-25T22:10:55.988Z,6.70
2022-11-25T22:13:24.121Z,6.40
2022-11-25T22:15:53.931Z,6.60
2022-11-25T22:18:33.507Z,6.50
2022-11-25T22:21:00.271Z,6.30
2022-11-25T22:23:27.210Z,6.50
2022-11-25T22:25:53.826Z,6.70
2022-11-25T22:28:24.479Z,7.00
2022-11-25T22:30:52.176Z,6.60
2022-11-25T22:33:19.622Z,6.50
2022-11-25T22:35:46.392Z,6.40
2022-11-25T22:38:13.983Z,6.50
2022-11-25T22:40:42.472Z,6.70
2022-11-25T22:43:20.993Z,6.50
2022-11-25T22:45:47.638Z,6.50
2022-11-25T22:48:16.646Z,6.30
2022-11-25T22:50:43.552Z,6.30
2022-11-25T22:53:12.641Z,6.70
2022-11-25T22:55:39.245Z,6.70
2022-11-25T22:58:05.864Z,6.40
2022-11-25T23:00:37.610Z,6.40
2022-11-25T23:03:06.863Z,6.90
2022-11-25T23:05:34.724Z,6.40
2022-11-25T23:08:02.599Z,6.50
2022-11-25T23:10:30.351Z,6.30
2022-11-25T23:12:56.976Z,6.30
2022-11-25T23:15:23.924Z,6.50
2022-11-25T23:17:54.784Z,6.60
2022-11-25T23:20:26.178Z,6.50
2022-11-25T23:22:52.877Z,6.50
2022-11-25T23:25:20.657Z,6.50
2022-11-25T23:27:47.498Z,6.90
2022-11-25T23:30:18.638Z,6.80
2022-11-25T23:32:45.703Z,6.40
2022-11-25T23:35:17.109Z,6.60
2022-11-25T23:37:43.775Z,6.70
2022-11-25T23:40:18.032Z,6.80
2022-11-25T23:42:45.016Z,6.40
2022-11-25T23:45:16.245Z,6.60
2022-11-25T23:47:44.433Z,7.00
2022-11-25T23:50:32.151Z,7.00
2022-11-25T23:53:01.882Z,6.50
2022-11-25T23:55:31.247Z,6.60
2022-11-25T23:57:58.292Z,6.80
